Time;durP1;ratioP1;P1;durP2;ratioP2;P2;SDS_P1;SDS_P2;PMS_P1;PMS_P2;Temp;Humidity;BMP_temperature;BMP_pressure;BME280_temperature;BME280_humidity;BME280_pressure;Samples;Min_cycle;Max_cycle;Signal;HPM_P1;HPM_P2
2023/09/14 00:00:15;;;;;;;7.30;3.73;;;;;;;;;;5045756;28;20631;-74
2023/09/14 00:02:41;;;;;;;6.93;4.25;;;;;;;;;;5047216;28;20271;-74
2023/09/14 00:05:06;;;;;;;7.57;3.90;;;;;;;;;;5046196;28;20538;-74
2023/09/14 00:07:32;;;;;;;7.25;3.83;;;;;;;;;;5029314;28;20695;-74
2023/09/14 00:09:57;;;;;;;9.10;4.30;;;;;;;;;;5029694;28;20116;-74
2023/09/14 00:12:22;;;;;;;6.47;3.65;;;;;;;;;;5045656;28;20083;-75
2023/09/14 00:14:48;;;;;;;6.67;3.83;;;;;;;;;;5046303;28;20100;-75
2023/09/14 00:17:13;;;;;;;7.80;4.10;;;;;;;;;;5046004;28;20290;-73
2023/09/14 00:19:38;;;;;;;8.70;3.80;;;;;;;;;;5047305;28;20275;-74
2023/09/14 00:22:03;;;;;;;7.37;3.97;;;;;;;;;;5045045;28;20294;-73
2023/09/14 00:24:29;;;;;;;8.18;4.32;;;;;;;;;;5045852;28;20392;-74
2023/09/14 00:26:54;;;;;;;6.27;3.67;;;;;;;;;;5047748;28;20025;-74
2023/09/14 00:29:19;;;;;;;6.27;4.03;;;;;;;;;;5026102;28;20279;-73
2023/09/14 00:31:44;;;;;;;6.17;4.10;;;;;;;;;;5028850;28;20263;-74
2023/09/14 00:34:10;;;;;;;10.63;4.47;;;;;;;;;;5045591;28;20021;-74
2023/09/14 00:36:35;;;;;;;7.15;4.00;;;;;;;;;;5045694;28;20670;-74
2023/09/14 00:39:00;;;;;;;7.00;4.03;;;;;;;;;;5046907;28;20044;-74
2023/09/14 00:41:25;;;;;;;10.53;3.87;;;;;;;;;;5046936;28;20491;-75
2023/09/14 00:43:51;;;;;;;6.30;4.13;;;;;;;;;;5045027;28;20297;-75
2023/09/14 00:46:16;;;;;;;7.90;3.97;;;;;;;;;;5047057;28;20099;-75
2023/09/14 00:48:41;;;;;;;8.57;4.18;;;;;;;;;;5047155;28;20271;-75
2023/09/14 00:51:07;;;;;;;6.83;4.10;;;;;;;;;;5046750;28;20512;-74
2023/09/14 00:53:32;;;;;;;7.43;4.00;;;;;;;;;;5046708;28;20459;-74
2023/09/14 00:55:58;;;;;;;8.38;3.92;;;;;;;;;;5045217;28;20567;-74
2023/09/14 00:58:23;;;;;;;8.55;4.10;;;;;;;;;;5046792;28;20163;-75
2023/09/14 01:00:48;;;;;;;5.88;3.70;;;;;;;;;;5044626;28;20082;-74
2023/09/14 01:03:14;;;;;;;8.43;4.25;;;;;;;;;;5046094;28;20325;-74
2023/09/14 01:05:39;;;;;;;7.63;3.83;;;;;;;;;;5045169;28;20032;-74
2023/09/14 01:08:04;;;;;;;8.52;4.32;;;;;;;;;;5044256;28;20350;-75
2023/09/14 01:10:30;;;;;;;8.82;4.68;;;;;;;;;;5045810;28;20098;-74
2023/09/14 01:12:56;;;;;;;7.07;3.90;;;;;;;;;;5043554;28;20040;-74
2023/09/14 01:15:25;;;;;;;7.82;3.85;;;;;;;;;;5045610;28;20025;-74
2023/09/14 01:17:56;;;;;;;8.23;4.05;;;;;;;;;;5044292;28;20483;-75
2023/09/14 01:20:33;;;;;;;5.47;4.05;;;;;;;;;;5037737;28;20730;-73
2023/09/14 01:23:04;;;;;;;7.28;4.13;;;;;;;;;;5036773;28;20192;-74
2023/09/14 01:28:32;;;;;;;7.00;3.63;;;;;;;;;;5045655;28;20040;-74
2023/09/14 01:30:58;;;;;;;6.10;3.60;;;;;;;;;;5043868;28;20408;-74
2023/09/14 01:33:25;;;;;;;7.28;3.60;;;;;;;;;;5045188;28;20299;-74
2023/09/14 01:36:06;;;;;;;8.25;3.92;;;;;;;;;;5045865;28;20041;-74
2023/09/14 01:38:32;;;;;;;6.78;3.67;;;;;;;;;;5043973;28;20836;-74
2023/09/14 01:40:58;;;;;;;7.72;3.72;;;;;;;;;;5035076;28;20058;-74
2023/09/14 01:43:23;;;;;;;6.63;3.83;;;;;;;;;;5040834;28;20053;-73
2023/09/14 01:45:48;;;;;;;7.97;3.50;;;;;;;;;;5045293;28;20047;-73
2023/09/14 01:48:17;;;;;;;7.28;3.60;;;;;;;;;;5043587;28;20371;-74
2023/09/14 01:50:42;;;;;;;5.90;3.72;;;;;;;;;;5045444;28;20055;-73
2023/09/14 01:53:07;;;;;;;8.07;3.80;;;;;;;;;;5043693;28;20029;-74
2023/09/14 01:55:33;;;;;;;5.17;3.30;;;;;;;;;;5043757;28;20668;-74
2023/09/14 01:57:58;;;;;;;8.23;3.47;;;;;;;;;;5043438;28;20032;-74
2023/09/14 02:00:25;;;;;;;6.90;3.43;;;;;;;;;;5043646;28;20051;-74
2023/09/14 02:02:51;;;;;;;6.97;4.18;;;;;;;;;;5043278;28;20029;-75
2023/09/14 02:05:16;;;;;;;7.28;3.70;;;;;;;;;;5043491;28;20052;-74
2023/09/14 02:07:41;;;;;;;6.43;3.90;;;;;;;;;;5043941;28;20546;-74
2023/09/14 02:10:07;;;;;;;6.03;3.97;;;;;;;;;;5043287;28;20036;-74
2023/09/14 02:12:32;;;;;;;9.23;3.70;;;;;;;;;;5040915;28;20792;-74
2023/09/14 02:14:58;;;;;;;6.03;3.60;;;;;;;;;;5044952;28;20116;-73
2023/09/14 02:17:23;;;;;;;9.68;3.88;;;;;;;;;;5045047;28;20337;-73
2023/09/14 02:19:48;;;;;;;6.50;3.50;;;;;;;;;;5045132;28;20052;-75
2023/09/14 02:22:13;;;;;;;7.47;3.90;;;;;;;;;;5026878;28;20090;-73
2023/09/14 02:24:38;;;;;;;6.97;3.90;;;;;;;;;;5045369;28;20084;-73
2023/09/14 02:27:04;;;;;;;7.80;3.83;;;;;;;;;;5045613;28;20056;-73
2023/09/14 02:29:30;;;;;;;7.05;4.57;;;;;;;;;;5049050;28;20040;-73
2023/09/14 02:31:56;;;;;;;6.72;3.60;;;;;;;;;;5046509;28;20033;-73
2023/09/14 02:34:21;;;;;;;5.32;3.72;;;;;;;;;;5044860;28;20156;-74
2023/09/14 02:36:46;;;;;;;8.53;3.90;;;;;;;;;;5044034;28;20503;-74
2023/09/14 02:39:11;;;;;;;8.00;4.10;;;;;;;;;;5042701;28;20362;-74
2023/09/14 02:41:36;;;;;;;6.73;3.93;;;;;;;;;;5044419;28;20159;-74
2023/09/14 02:44:02;;;;;;;8.45;3.95;;;;;;;;;;5044588;28;20307;-74
2023/09/14 02:46:27;;;;;;;11.95;4.00;;;;;;;;;;5044208;28;20495;-74
2023/09/14 02:48:53;;;;;;;7.53;3.60;;;;;;;;;;5044996;28;20591;-73
2023/09/14 02:51:18;;;;;;;8.10;4.05;;;;;;;;;;5042988;28;20650;-75
2023/09/14 02:53:43;;;;;;;5.90;3.83;;;;;;;;;;5043341;28;20053;-75
2023/09/14 02:56:11;;;;;;;6.97;3.90;;;;;;;;;;5044588;28;20712;-75
2023/09/14 02:58:36;;;;;;;5.47;3.65;;;;;;;;;;5044944;28;20037;-75
2023/09/14 03:01:06;;;;;;;6.47;3.67;;;;;;;;;;5044675;28;20037;-74
2023/09/14 03:03:31;;;;;;;6.47;3.87;;;;;;;;;;5042841;28;20103;-75
2023/09/14 03:05:56;;;;;;;8.47;4.03;;;;;;;;;;5044511;28;20044;-74
2023/09/14 03:08:21;;;;;;;8.30;3.85;;;;;;;;;;5042798;28;20079;-74
2023/09/14 03:10:46;;;;;;;8.73;3.90;;;;;;;;;;5044247;28;20143;-73
2023/09/14 03:13:12;;;;;;;6.40;3.80;;;;;;;;;;5044610;28;20120;-74
2023/09/14 03:15:37;;;;;;;6.60;3.90;;;;;;;;;;5043201;28;20327;-73
2023/09/14 03:18:02;;;;;;;7.13;4.30;;;;;;;;;;5044226;28;20065;-75
2023/09/14 03:20:28;;;;;;;7.10;3.72;;;;;;;;;;5044274;28;20686;-75
2023/09/14 03:22:53;;;;;;;5.50;4.00;;;;;;;;;;5043954;28;20136;-75
2023/09/14 03:25:19;;;;;;;5.40;3.50;;;;;;;;;;5042719;28;20053;-74
2023/09/14 03:27:44;;;;;;;7.68;3.75;;;;;;;;;;5044575;28;20368;-75
2023/09/14 03:30:10;;;;;;;7.97;4.35;;;;;;;;;;5043118;28;20126;-75
2023/09/14 03:32:35;;;;;;;8.18;3.97;;;;;;;;;;5046094;28;20029;-74
2023/09/14 03:35:00;;;;;;;8.52;4.15;;;;;;;;;;5047027;28;20665;-74
2023/09/14 03:37:25;;;;;;;7.23;4.20;;;;;;;;;;5046833;28;20415;-74
2023/09/14 03:39:51;;;;;;;7.37;4.10;;;;;;;;;;5046265;28;20928;-74
2023/09/14 03:42:16;;;;;;;8.87;4.17;;;;;;;;;;5046361;28;20360;-74
2023/09/14 03:44:41;;;;;;;5.45;3.60;;;;;;;;;;5045054;28;20057;-74
2023/09/14 03:47:07;;;;;;;7.63;4.20;;;;;;;;;;5046418;28;20269;-74
2023/09/14 03:49:32;;;;;;;7.30;4.03;;;;;;;;;;5047689;28;20279;-75
2023/09/14 03:51:58;;;;;;;8.75;4.30;;;;;;;;;;5045703;28;20691;-74
2023/09/14 03:54:23;;;;;;;6.90;3.50;;;;;;;;;;5047699;28;20045;-74
2023/09/14 03:56:48;;;;;;;5.90;3.60;;;;;;;;;;5047572;28;20033;-74
2023/09/14 03:59:13;;;;;;;7.68;4.35;;;;;;;;;;5047414;28;20095;-74
2023/09/14 04:01:39;;;;;;;5.75;3.75;;;;;;;;;;5029270;28;20489;-73
2023/09/14 04:04:04;;;;;;;6.20;3.77;;;;;;;;;;5046803;28;20036;-75
2023/09/14 04:06:30;;;;;;;7.28;4.07;;;;;;;;;;5047556;28;20797;-75
2023/09/14 04:08:55;;;;;;;6.57;4.27;;;;;;;;;;5047307;28;20104;-75
2023/09/14 04:11:20;;;;;;;7.93;3.75;;;;;;;;;;5046516;28;20279;-75
2023/09/14 04:13:47;;;;;;;5.90;3.53;;;;;;;;;;5045551;28;20037;-75
2023/09/14 04:16:13;;;;;;;9.02;4.20;;;;;;;;;;5048232;28;20483;-75
2023/09/14 04:18:38;;;;;;;7.38;4.22;;;;;;;;;;5046195;28;20025;-74
2023/09/14 04:21:04;;;;;;;9.27;4.60;;;;;;;;;;5045644;28;20112;-75
2023/09/14 04:23:29;;;;;;;7.95;4.50;;;;;;;;;;5029073;28;20041;-73
2023/09/14 04:25:54;;;;;;;7.77;4.30;;;;;;;;;;5046964;28;20040;-73
2023/09/14 04:28:21;;;;;;;7.53;4.50;;;;;;;;;;5047246;28;20291;-73
2023/09/14 04:30:48;;;;;;;8.85;4.30;;;;;;;;;;5047209;28;20283;-74
2023/09/14 04:33:13;;;;;;;7.78;4.43;;;;;;;;;;5046531;28;20479;-73
2023/09/14 04:35:38;;;;;;;9.10;4.20;;;;;;;;;;5047345;28;20021;-73
2023/09/14 04:38:04;;;;;;;6.63;4.20;;;;;;;;;;5045459;28;20166;-74
2023/09/14 04:40:29;;;;;;;7.85;4.10;;;;;;;;;;5046671;28;20305;-74
2023/09/14 04:42:54;;;;;;;7.38;4.60;;;;;;;;;;5043325;28;20024;-73
2023/09/14 04:45:20;;;;;;;8.87;4.07;;;;;;;;;;5046608;28;20484;-74
2023/09/14 04:47:45;;;;;;;7.87;3.83;;;;;;;;;;5046180;28;20531;-74
2023/09/14 04:50:10;;;;;;;6.60;4.10;;;;;;;;;;5046614;28;20263;-74
2023/09/14 04:52:35;;;;;;;8.07;4.17;;;;;;;;;;5047084;28;20027;-74
2023/09/14 04:55:01;;;;;;;6.50;3.97;;;;;;;;;;5044891;28;20064;-75
2023/09/14 04:57:26;;;;;;;4.93;3.73;;;;;;;;;;5046546;28;20024;-73
2023/09/14 04:59:51;;;;;;;8.07;4.10;;;;;;;;;;5046433;28;20263;-73
2023/09/14 05:02:16;;;;;;;7.65;3.70;;;;;;;;;;5044885;28;20275;-74
2023/09/14 05:04:42;;;;;;;8.00;4.37;;;;;;;;;;5046351;28;20041;-73
2023/09/14 05:07:08;;;;;;;9.60;4.40;;;;;;;;;;5045748;28;20301;-74
2023/09/14 05:09:33;;;;;;;6.60;4.30;;;;;;;;;;5044840;28;20025;-74
2023/09/14 05:11:58;;;;;;;7.77;4.20;;;;;;;;;;5044786;28;20447;-73
2023/09/14 05:14:24;;;;;;;7.03;3.83;;;;;;;;;;5045564;28;20434;-74
2023/09/14 05:16:49;;;;;;;10.02;4.68;;;;;;;;;;5044357;28;20025;-75
2023/09/14 05:19:14;;;;;;;7.70;4.47;;;;;;;;;;5046215;28;20033;-74
2023/09/14 05:21:40;;;;;;;8.35;4.32;;;;;;;;;;5046440;28;20031;-74
2023/09/14 05:24:05;;;;;;;11.00;4.80;;;;;;;;;;5045331;28;20041;-74
2023/09/14 05:26:30;;;;;;;7.88;4.80;;;;;;;;;;5025473;28;20269;-74
2023/09/14 05:28:55;;;;;;;9.35;4.57;;;;;;;;;;5025315;28;20018;-74
2023/09/14 05:31:21;;;;;;;8.10;5.10;;;;;;;;;;5026642;28;20021;-74
2023/09/14 05:33:46;;;;;;;7.93;4.60;;;;;;;;;;5043772;28;20275;-74
2023/09/14 05:36:11;;;;;;;7.20;4.55;;;;;;;;;;5045568;28;20295;-74
2023/09/14 05:38:36;;;;;;;9.77;5.07;;;;;;;;;;5027832;28;20202;-73
2023/09/14 05:41:03;;;;;;;6.57;4.47;;;;;;;;;;5038554;28;20112;-75
2023/09/14 05:43:28;;;;;;;8.27;5.15;;;;;;;;;;5016314;28;20327;-78
2023/09/14 05:45:54;;;;;;;10.00;5.20;;;;;;;;;;5032645;28;20033;-77
2023/09/14 05:48:19;;;;;;;9.57;5.18;;;;;;;;;;5032476;28;20041;-78
2023/09/14 05:50:44;;;;;;;9.65;5.00;;;;;;;;;;5035314;28;20174;-79
2023/09/14 05:53:10;;;;;;;9.43;5.60;;;;;;;;;;5038204;28;21020;-77
2023/09/14 05:55:35;;;;;;;9.77;5.00;;;;;;;;;;5029798;28;20498;-75
2023/09/14 05:58:00;;;;;;;9.53;5.73;;;;;;;;;;5031047;28;20443;-74
2023/09/14 06:00:25;;;;;;;9.82;5.63;;;;;;;;;;5036343;28;20115;-77
2023/09/14 06:02:51;;;;;;;10.98;5.53;;;;;;;;;;5030039;28;20022;-77
2023/09/14 06:05:16;;;;;;;10.70;5.25;;;;;;;;;;5031523;28;20037;-76
2023/09/14 06:07:42;;;;;;;9.82;5.75;;;;;;;;;;5029454;28;20063;-79
2023/09/14 06:10:07;;;;;;;9.95;5.63;;;;;;;;;;5019017;28;20209;-73
2023/09/14 06:12:32;;;;;;;11.18;5.55;;;;;;;;;;5029598;28;20094;-73
2023/09/14 06:14:57;;;;;;;11.03;5.10;;;;;;;;;;5012011;28;20029;-73
2023/09/14 06:17:23;;;;;;;8.73;5.40;;;;;;;;;;5028395;28;20355;-72
2023/09/14 06:19:48;;;;;;;9.65;5.10;;;;;;;;;;5031309;28;20510;-74
2023/09/14 06:22:13;;;;;;;10.37;5.80;;;;;;;;;;5030710;28;20025;-72
2023/09/14 06:24:39;;;;;;;12.67;6.20;;;;;;;;;;5012385;28;20816;-75
2023/09/14 06:27:04;;;;;;;10.85;5.75;;;;;;;;;;5030331;28;20429;-72
2023/09/14 06:29:29;;;;;;;11.50;5.80;;;;;;;;;;5018616;28;20037;-74
2023/09/14 06:31:55;;;;;;;13.40;5.70;;;;;;;;;;5035475;28;20040;-72
2023/09/14 06:34:20;;;;;;;13.27;6.40;;;;;;;;;;5031669;28;20280;-73
2023/09/14 06:36:46;;;;;;;9.85;5.75;;;;;;;;;;5032653;28;20439;-74
2023/09/14 06:39:12;;;;;;;11.88;6.40;;;;;;;;;;5033847;28;20037;-74
2023/09/14 06:41:38;;;;;;;15.88;6.45;;;;;;;;;;5031248;28;20030;-78
2023/09/14 06:44:03;;;;;;;10.18;5.65;;;;;;;;;;5027409;28;20046;-74
2023/09/14 06:46:29;;;;;;;13.65;5.93;;;;;;;;;;5034727;28;20072;-74
2023/09/14 06:48:54;;;;;;;13.47;6.43;;;;;;;;;;5029183;28;20037;-74
2023/09/14 06:51:19;;;;;;;15.23;7.00;;;;;;;;;;5031543;28;20853;-75
2023/09/14 06:53:45;;;;;;;12.23;5.77;;;;;;;;;;5029540;28;20302;-75
2023/09/14 06:56:10;;;;;;;10.55;6.25;;;;;;;;;;5034838;28;20290;-76
2023/09/14 06:58:36;;;;;;;17.25;7.32;;;;;;;;;;5034763;28;20037;-79
2023/09/14 07:01:03;;;;;;;11.83;6.00;;;;;;;;;;5030869;28;20038;-75
2023/09/14 07:03:29;;;;;;;12.35;6.38;;;;;;;;;;5034690;28;20299;-76
2023/09/14 07:05:54;;;;;;;14.32;7.07;;;;;;;;;;5016005;28;20041;-76
2023/09/14 07:08:19;;;;;;;12.43;7.13;;;;;;;;;;5032699;28;20045;-77
2023/09/14 07:10:44;;;;;;;14.40;6.37;;;;;;;;;;5023104;28;20299;-77
2023/09/14 07:13:10;;;;;;;13.33;6.90;;;;;;;;;;5031266;28;20378;-77
2023/09/14 07:15:35;;;;;;;14.97;6.90;;;;;;;;;;5034863;28;20116;-74
2023/09/14 07:18:00;;;;;;;12.90;7.25;;;;;;;;;;5033575;28;20299;-75
2023/09/14 07:20:25;;;;;;;19.33;7.23;;;;;;;;;;5034197;28;20521;-74
2023/09/14 07:22:51;;;;;;;11.40;6.83;;;;;;;;;;5034370;28;20830;-75
2023/09/14 07:25:16;;;;;;;18.15;7.60;;;;;;;;;;5033461;28;20298;-74
2023/09/14 07:27:42;;;;;;;19.90;7.40;;;;;;;;;;5032876;28;20041;-75
2023/09/14 07:30:07;;;;;;;14.47;7.50;;;;;;;;;;5031258;28;20091;-74
2023/09/14 07:32:34;;;;;;;11.15;7.43;;;;;;;;;;5034931;28;20292;-75
2023/09/14 07:35:01;;;;;;;15.18;7.40;;;;;;;;;;5032300;28;20668;-74
2023/09/14 07:37:26;;;;;;;14.93;6.90;;;;;;;;;;5032769;28;20140;-74
2023/09/14 07:39:51;;;;;;;14.35;7.18;;;;;;;;;;5034585;28;21077;-74
2023/09/14 07:42:16;;;;;;;14.23;6.60;;;;;;;;;;5035434;28;20033;-75
2023/09/14 07:44:42;;;;;;;19.47;7.03;;;;;;;;;;5018159;28;20045;-79
2023/09/14 07:47:07;;;;;;;16.63;6.88;;;;;;;;;;5031204;28;20093;-73
2023/09/14 07:49:32;;;;;;;20.07;6.93;;;;;;;;;;5019283;28;20486;-76
2023/09/14 07:51:57;;;;;;;14.87;6.50;;;;;;;;;;5017621;28;20133;-78
2023/09/14 07:54:22;;;;;;;18.87;7.00;;;;;;;;;;5021001;28;20306;-79
2023/09/14 07:56:48;;;;;;;17.50;6.87;;;;;;;;;;5032185;28;20279;-74
2023/09/14 07:59:13;;;;;;;15.60;6.47;;;;;;;;;;5037258;28;20796;-75
2023/09/14 08:01:38;;;;;;;19.27;7.10;;;;;;;;;;5033857;28;20815;-75
2023/09/14 08:04:04;;;;;;;18.67;6.80;;;;;;;;;;5032428;28;20290;-74
2023/09/14 08:06:29;;;;;;;16.80;7.00;;;;;;;;;;5034945;28;20040;-75
2023/09/14 08:08:55;;;;;;;16.93;6.60;;;;;;;;;;5035407;28;20038;-76
2023/09/14 08:11:20;;;;;;;16.88;6.32;;;;;;;;;;5036544;28;20311;-75
2023/09/14 08:13:45;;;;;;;11.60;6.40;;;;;;;;;;5037103;28;20022;-75
2023/09/14 08:16:10;;;;;;;16.20;6.87;;;;;;;;;;5028123;28;20040;-73
2023/09/14 08:18:36;;;;;;;18.23;6.30;;;;;;;;;;5032375;28;20037;-76
2023/09/14 08:21:01;;;;;;;14.30;5.27;;;;;;;;;;5031107;28;20037;-73
2023/09/14 08:23:27;;;;;;;15.82;6.45;;;;;;;;;;5033065;28;20137;-73
2023/09/14 08:25:53;;;;;;;13.25;5.50;;;;;;;;;;5030411;28;20048;-79
2023/09/14 08:28:19;;;;;;;14.00;5.67;;;;;;;;;;5036042;28;20037;-78
2023/09/14 08:30:45;;;;;;;15.73;5.50;;;;;;;;;;5020718;28;20296;-77
2023/09/14 08:33:13;;;;;;;11.88;5.55;;;;;;;;;;5029727;28;20269;-74
2023/09/14 08:35:39;;;;;;;13.48;4.80;;;;;;;;;;5031892;28;20037;-75
2023/09/14 08:38:05;;;;;;;13.85;5.47;;;;;;;;;;4976390;28;1125074;-75
2023/09/14 08:40:30;;;;;;;13.32;5.28;;;;;;;;;;5016591;28;20515;-78
2023/09/14 08:42:55;;;;;;;10.53;5.03;;;;;;;;;;5036917;28;20028;-78
2023/09/14 08:45:27;;;;;;;10.52;5.03;;;;;;;;;;5037076;28;20307;-78
2023/09/14 08:47:53;;;;;;;13.98;5.25;;;;;;;;;;5020853;28;20039;-79
2023/09/14 08:50:18;;;;;;;11.68;5.05;;;;;;;;;;5034305;28;20690;-79
2023/09/14 08:52:44;;;;;;;11.88;5.30;;;;;;;;;;5035666;28;20260;-81
2023/09/14 08:55:09;;;;;;;9.90;5.32;;;;;;;;;;5032605;28;20041;-78
2023/09/14 08:57:34;;;;;;;12.73;5.17;;;;;;;;;;5038455;28;20033;-78
2023/09/14 09:00:00;;;;;;;10.40;4.73;;;;;;;;;;5033387;28;20346;-80
2023/09/14 09:02:25;;;;;;;12.88;5.10;;;;;;;;;;5017976;28;20522;-76
2023/09/14 09:04:50;;;;;;;10.75;4.97;;;;;;;;;;5036775;28;21173;-76
2023/09/14 09:07:15;;;;;;;10.83;4.90;;;;;;;;;;5033747;28;20053;-77
2023/09/14 09:09:41;;;;;;;11.02;4.40;;;;;;;;;;5036888;28;20178;-78
2023/09/14 09:12:06;;;;;;;14.40;5.20;;;;;;;;;;5033234;28;20078;-78
2023/09/14 09:14:32;;;;;;;15.13;5.70;;;;;;;;;;5031329;28;20332;-77
2023/09/14 09:16:58;;;;;;;9.73;4.35;;;;;;;;;;5031067;28;20052;-78
2023/09/14 09:19:23;;;;;;;10.63;4.80;;;;;;;;;;5031817;28;20033;-76
2023/09/14 09:21:48;;;;;;;12.73;4.83;;;;;;;;;;5020479;28;20033;-77
2023/09/14 09:24:15;;;;;;;10.70;4.60;;;;;;;;;;5035753;28;20406;-77
2023/09/14 09:26:41;;;;;;;11.00;4.43;;;;;;;;;;5032270;28;20044;-77
2023/09/14 09:29:14;;;;;;;9.50;4.38;;;;;;;;;;5036418;28;20034;-76
2023/09/14 09:31:43;;;;;;;12.05;4.65;;;;;;;;;;5030494;28;20136;-76
2023/09/14 09:34:09;;;;;;;10.85;4.30;;;;;;;;;;5015839;28;20038;-77
2023/09/14 09:36:34;;;;;;;9.85;4.32;;;;;;;;;;5036983;28;20099;-76
2023/09/14 09:39:04;;;;;;;11.90;4.33;;;;;;;;;;5020000;28;20052;-76
2023/09/14 09:41:31;;;;;;;10.25;4.38;;;;;;;;;;5037242;28;20373;-76
2023/09/14 09:43:56;;;;;;;15.95;4.53;;;;;;;;;;5031363;28;20036;-75
2023/09/14 09:46:22;;;;;;;11.07;4.13;;;;;;;;;;5031384;28;20511;-77
2023/09/14 09:48:47;;;;;;;10.60;4.77;;;;;;;;;;5014728;28;20424;-75
2023/09/14 09:51:12;;;;;;;7.67;4.40;;;;;;;;;;5036312;28;20361;-76
2023/09/14 09:53:37;;;;;;;10.47;4.63;;;;;;;;;;5037643;28;20499;-75
2023/09/14 09:56:03;;;;;;;8.17;4.13;;;;;;;;;;5036897;28;20372;-75
2023/09/14 09:58:35;;;;;;;10.52;4.13;;;;;;;;;;5036639;28;20318;-76
2023/09/14 10:01:00;;;;;;;9.80;4.53;;;;;;;;;;5031095;28;20112;-76
2023/09/14 10:03:25;;;;;;;8.00;3.70;;;;;;;;;;5018406;28;20061;-76
2023/09/14 10:05:51;;;;;;;10.02;4.80;;;;;;;;;;5032170;28;20337;-76
2023/09/14 10:08:20;;;;;;;12.23;4.60;;;;;;;;;;5014790;28;20487;-76
2023/09/14 10:10:50;;;;;;;8.90;4.53;;;;;;;;;;5011221;28;20266;-77
2023/09/14 10:13:17;;;;;;;9.10;4.00;;;;;;;;;;5013568;28;20366;-76
2023/09/14 10:15:42;;;;;;;8.48;4.20;;;;;;;;;;5031248;28;20103;-79
2023/09/14 10:18:07;;;;;;;10.43;4.63;;;;;;;;;;5038008;28;20021;-78
2023/09/14 10:20:33;;;;;;;10.05;4.35;;;;;;;;;;5046326;28;20037;-77
2023/09/14 10:22:59;;;;;;;10.90;4.57;;;;;;;;;;5031253;28;20037;-77
2023/09/14 10:25:24;;;;;;;9.85;4.25;;;;;;;;;;5035870;28;20184;-76
2023/09/14 10:27:49;;;;;;;14.10;5.50;;;;;;;;;;5035560;28;20033;-76
2023/09/14 10:30:18;;;;;;;11.87;4.37;;;;;;;;;;5033439;28;20029;-74
2023/09/14 10:32:45;;;;;;;9.80;3.72;;;;;;;;;;5031183;28;20284;-76
2023/09/14 10:35:11;;;;;;;10.95;4.57;;;;;;;;;;5031533;28;20029;-71
2023/09/14 10:37:36;;;;;;;10.07;3.67;;;;;;;;;;5018762;28;20496;-75
2023/09/14 10:40:02;;;;;;;10.13;3.80;;;;;;;;;;5028943;28;20326;-74
2023/09/14 10:42:27;;;;;;;11.85;4.20;;;;;;;;;;5017358;28;20037;-74
2023/09/14 10:44:52;;;;;;;9.33;3.67;;;;;;;;;;5031140;28;20119;-75
2023/09/14 10:47:18;;;;;;;9.90;3.77;;;;;;;;;;5035427;28;20280;-75
2023/09/14 10:49:44;;;;;;;10.55;3.65;;;;;;;;;;5036808;28;20843;-74
2023/09/14 10:52:09;;;;;;;8.32;3.55;;;;;;;;;;5032937;28;20122;-74
2023/09/14 10:54:34;;;;;;;7.03;3.03;;;;;;;;;;5036381;28;20510;-74
2023/09/14 10:57:00;;;;;;;8.93;3.45;;;;;;;;;;5036797;28;20135;-74
2023/09/14 10:59:44;;;;;;;7.50;4.07;;;;;;;;;;5031316;28;20037;-74
2023/09/14 11:02:10;;;;;;;8.18;3.22;;;;;;;;;;5036427;28;20112;-74
2023/09/14 11:04:35;;;;;;;7.55;3.22;;;;;;;;;;5035924;28;20129;-74
2023/09/14 11:07:04;;;;;;;7.47;3.50;;;;;;;;;;5032125;28;20055;-75
2023/09/14 11:09:29;;;;;;;8.15;3.75;;;;;;;;;;5032443;28;20514;-74
2023/09/14 11:11:54;;;;;;;9.02;3.22;;;;;;;;;;5030781;28;20034;-75
2023/09/14 11:14:21;;;;;;;10.38;3.85;;;;;;;;;;5033702;28;20049;-74
2023/09/14 11:16:47;;;;;;;8.25;3.92;;;;;;;;;;5032155;28;20792;-74
2023/09/14 11:19:37;;;;;;;7.90;3.90;;;;;;;;;;5035525;28;20023;-74
2023/09/14 11:22:03;;;;;;;7.78;3.35;;;;;;;;;;5033242;28;20032;-75
2023/09/14 11:24:35;;;;;;;6.30;3.30;;;;;;;;;;5036881;28;20057;-75
2023/09/14 11:27:00;;;;;;;9.15;3.70;;;;;;;;;;5032679;28;20034;-75
2023/09/14 11:29:28;;;;;;;7.37;3.70;;;;;;;;;;5030763;28;20052;-75
2023/09/14 11:31:54;;;;;;;6.55;3.53;;;;;;;;;;5031941;28;20068;-76
2023/09/14 11:34:21;;;;;;;8.13;3.97;;;;;;;;;;5031970;28;20041;-75
2023/09/14 11:36:47;;;;;;;7.60;3.50;;;;;;;;;;5015663;28;20731;-74
2023/09/14 11:39:13;;;;;;;7.20;3.58;;;;;;;;;;5033122;28;20068;-75
2023/09/14 11:41:41;;;;;;;7.40;3.97;;;;;;;;;;5031059;28;20034;-74
2023/09/14 11:44:06;;;;;;;7.80;3.40;;;;;;;;;;5034521;28;20062;-74
2023/09/14 11:46:32;;;;;;;6.97;3.50;;;;;;;;;;5036165;28;20558;-75
2023/09/14 11:48:57;;;;;;;6.32;3.72;;;;;;;;;;5039459;28;20061;-73
2023/09/14 11:51:25;;;;;;;8.65;4.07;;;;;;;;;;5042941;28;20039;-74
2023/09/14 11:53:50;;;;;;;8.40;3.78;;;;;;;;;;5047833;28;20029;-74
2023/09/14 11:56:18;;;;;;;10.00;3.90;;;;;;;;;;5047680;28;20029;-74
2023/09/14 11:58:45;;;;;;;6.30;3.65;;;;;;;;;;5047197;28;20123;-75
2023/09/14 12:01:12;;;;;;;11.10;3.80;;;;;;;;;;5047262;28;20036;-74
2023/09/14 12:03:37;;;;;;;7.63;4.10;;;;;;;;;;5045809;28;20507;-75
2023/09/14 12:06:02;;;;;;;5.82;3.53;;;;;;;;;;5046166;28;20040;-74
2023/09/14 12:08:28;;;;;;;6.60;3.90;;;;;;;;;;5038875;28;20072;-74
2023/09/14 12:10:54;;;;;;;8.73;3.73;;;;;;;;;;5045601;28;20075;-74
2023/09/14 12:13:19;;;;;;;7.28;3.42;;;;;;;;;;5046094;28;20037;-76
2023/09/14 12:15:45;;;;;;;8.20;4.35;;;;;;;;;;5048196;28;20045;-74
2023/09/14 12:18:11;;;;;;;5.95;3.50;;;;;;;;;;5045972;28;20091;-74
2023/09/14 12:20:39;;;;;;;7.47;3.67;;;;;;;;;;5047783;28;20041;-74
2023/09/14 12:23:05;;;;;;;6.82;3.45;;;;;;;;;;5034598;28;20527;-74
2023/09/14 12:25:30;;;;;;;9.48;4.00;;;;;;;;;;5045971;28;20087;-75
2023/09/14 12:27:56;;;;;;;9.23;4.00;;;;;;;;;;5045417;28;20060;-73
2023/09/14 12:30:21;;;;;;;8.57;3.63;;;;;;;;;;5045381;28;20041;-74
2023/09/14 12:32:46;;;;;;;8.80;4.10;;;;;;;;;;5027088;28;20036;-76
2023/09/14 12:35:12;;;;;;;6.97;3.83;;;;;;;;;;5046466;28;20275;-74
2023/09/14 12:37:38;;;;;;;10.83;4.27;;;;;;;;;;5045883;28;20037;-74
2023/09/14 12:40:06;;;;;;;9.40;3.95;;;;;;;;;;5045271;28;20385;-74
2023/09/14 12:42:32;;;;;;;8.45;3.78;;;;;;;;;;5044302;28;20086;-74
2023/09/14 12:44:57;;;;;;;7.00;3.58;;;;;;;;;;5038802;28;20123;-76
2023/09/14 12:47:23;;;;;;;6.53;3.88;;;;;;;;;;5033020;28;20660;-76
2023/09/14 12:49:49;;;;;;;9.35;4.03;;;;;;;;;;5020494;28;20403;-75
2023/09/14 12:52:15;;;;;;;7.32;3.90;;;;;;;;;;5035793;28;20108;-75
2023/09/14 12:54:42;;;;;;;6.38;3.63;;;;;;;;;;5036006;28;20057;-74
2023/09/14 12:57:13;;;;;;;9.02;4.10;;;;;;;;;;5037072;28;20771;-76
2023/09/14 12:59:53;;;;;;;10.25;3.80;;;;;;;;;;5019453;28;20071;-81
2023/09/14 13:02:18;;;;;;;6.97;4.00;;;;;;;;;;5018520;28;20561;-75
2023/09/14 13:04:43;;;;;;;9.38;3.80;;;;;;;;;;5015272;28;20478;-77
2023/09/14 13:07:14;;;;;;;8.37;3.80;;;;;;;;;;5032217;28;20030;-77
2023/09/14 13:09:39;;;;;;;8.35;3.55;;;;;;;;;;5031596;28;20035;-75
2023/09/14 13:12:04;;;;;;;7.13;3.87;;;;;;;;;;5031169;28;20037;-78
2023/09/14 13:14:29;;;;;;;5.33;3.73;;;;;;;;;;5019476;28;20303;-78
2023/09/14 13:16:55;;;;;;;8.15;4.05;;;;;;;;;;5033267;28;20748;-77
2023/09/14 13:19:25;;;;;;;5.78;4.05;;;;;;;;;;5033017;28;20026;-78
2023/09/14 13:21:51;;;;;;;7.18;3.80;;;;;;;;;;5035951;28;20044;-77
2023/09/14 13:24:16;;;;;;;5.50;3.35;;;;;;;;;;5033374;28;20048;-77
2023/09/14 13:26:41;;;;;;;7.80;3.88;;;;;;;;;;5036326;28;20032;-78
2023/09/14 13:29:06;;;;;;;7.17;3.80;;;;;;;;;;5034232;28;20456;-80
2023/09/14 13:31:32;;;;;;;10.10;3.80;;;;;;;;;;5031586;28;20071;-77
2023/09/14 13:33:57;;;;;;;7.70;3.67;;;;;;;;;;5034114;28;20291;-76
2023/09/14 13:36:22;;;;;;;6.45;4.00;;;;;;;;;;5037072;28;20056;-76
2023/09/14 13:38:48;;;;;;;7.37;3.70;;;;;;;;;;5034832;28;20036;-76
2023/09/14 13:41:13;;;;;;;5.93;3.50;;;;;;;;;;5032839;28;20805;-77
2023/09/14 13:43:38;;;;;;;7.18;3.97;;;;;;;;;;5033841;28;20404;-77
2023/09/14 13:46:04;;;;;;;6.57;3.60;;;;;;;;;;5035259;28;20837;-76
2023/09/14 13:48:29;;;;;;;6.20;3.55;;;;;;;;;;5032617;28;20044;-77
2023/09/14 13:50:54;;;;;;;7.20;4.07;;;;;;;;;;5035934;28;20529;-76
2023/09/14 13:53:20;;;;;;;7.38;3.25;;;;;;;;;;5033031;28;20030;-77
2023/09/14 13:55:46;;;;;;;6.70;3.83;;;;;;;;;;5030802;28;20038;-75
2023/09/14 13:58:11;;;;;;;6.88;3.72;;;;;;;;;;5036487;28;20037;-76
2023/09/14 14:00:36;;;;;;;8.83;4.10;;;;;;;;;;5029566;28;20663;-81
2023/09/14 14:03:06;;;;;;;6.93;3.60;;;;;;;;;;5034184;28;20295;-78
2023/09/14 14:05:31;;;;;;;6.07;3.47;;;;;;;;;;5018986;28;20427;-80
2023/09/14 14:07:56;;;;;;;8.33;3.40;;;;;;;;;;5029779;28;20033;-79
2023/09/14 14:10:21;;;;;;;9.27;3.97;;;;;;;;;;5035789;28;20294;-75
2023/09/14 14:12:47;;;;;;;9.07;3.90;;;;;;;;;;5032188;28;20133;-76
2023/09/14 14:15:12;;;;;;;8.03;3.70;;;;;;;;;;5035515;28;20047;-74
2023/09/14 14:17:37;;;;;;;5.37;4.17;;;;;;;;;;5031643;28;20108;-78
2023/09/14 14:20:03;;;;;;;5.93;3.43;;;;;;;;;;5033667;28;20123;-74
2023/09/14 14:22:28;;;;;;;7.93;3.80;;;;;;;;;;5036680;28;20318;-74
2023/09/14 14:24:53;;;;;;;7.35;3.70;;;;;;;;;;5030748;28;20485;-75
2023/09/14 14:27:19;;;;;;;7.47;3.67;;;;;;;;;;5031810;28;20535;-74
2023/09/14 14:29:44;;;;;;;9.18;4.22;;;;;;;;;;5033837;28;20069;-75
2023/09/14 14:32:10;;;;;;;7.90;3.70;;;;;;;;;;5019129;28;20930;-77